sensor_id;sensor_type;location;lat;lon;timestamp;P1;durP1;ratioP1;P2;durP2;ratioP2
11344;SDS011;5727;42.600;23.028;2023-04-07T00:01:55;15.13;;;12.50;;
11344;SDS011;5727;42.600;23.028;2023-04-07T00:04:22;16.20;;;12.63;;
11344;SDS011;5727;42.600;23.028;2023-04-07T00:06:49;18.40;;;12.70;;
11344;SDS011;5727;42.600;23.028;2023-04-07T00:09:16;14.20;;;12.80;;
11344;SDS011;5727;42.600;23.028;2023-04-07T00:11:42;14.70;;;12.20;;
11344;SDS011;5727;42.600;23.028;2023-04-07T00:14:09;16.30;;;13.13;;
11344;SDS011;5727;42.600;23.028;2023-04-07T00:16:36;14.90;;;12.13;;
11344;SDS011;5727;42.600;23.028;2023-04-07T00:19:04;14.47;;;12.93;;
11344;SDS011;5727;42.600;23.028;2023-04-07T00:21:30;17.73;;;12.60;;
11344;SDS011;5727;42.600;23.028;2023-04-07T00:23:57;17.57;;;13.73;;
11344;SDS011;5727;42.600;23.028;2023-04-07T00:26:24;19.10;;;14.20;;
11344;SDS011;5727;42.600;23.028;2023-04-07T00:28:55;16.83;;;13.90;;
11344;SDS011;5727;42.600;23.028;2023-04-07T00:31:22;20.43;;;14.93;;
11344;SDS011;5727;42.600;23.028;2023-04-07T00:33:48;23.00;;;15.63;;
11344;SDS011;5727;42.600;23.028;2023-04-07T00:36:17;16.67;;;13.53;;
11344;SDS011;5727;42.600;23.028;2023-04-07T00:38:43;17.00;;;12.97;;
11344;SDS011;5727;42.600;23.028;2023-04-07T00:41:10;22.73;;;14.83;;
11344;SDS011;5727;42.600;23.028;2023-04-07T00:43:37;18.43;;;12.53;;
11344;SDS011;5727;42.600;23.028;2023-04-07T00:46:04;17.87;;;13.47;;
11344;SDS011;5727;42.600;23.028;2023-04-07T00:48:31;17.70;;;14.23;;
11344;SDS011;5727;42.600;23.028;2023-04-07T00:50:58;16.27;;;12.60;;
11344;SDS011;5727;42.600;23.028;2023-04-07T00:53:29;16.03;;;11.87;;
11344;SDS011;5727;42.600;23.028;2023-04-07T00:55:56;15.30;;;11.20;;
11344;SDS011;5727;42.600;23.028;2023-04-07T00:58:23;15.27;;;11.97;;
11344;SDS011;5727;42.600;23.028;2023-04-07T01:00:50;12.53;;;11.23;;
11344;SDS011;5727;42.600;23.028;2023-04-07T01:03:24;14.90;;;10.83;;
11344;SDS011;5727;42.600;23.028;2023-04-07T01:05:57;13.70;;;11.47;;
11344;SDS011;5727;42.600;23.028;2023-04-07T01:08:29;18.37;;;12.53;;
11344;SDS011;5727;42.600;23.028;2023-04-07T01:10:59;14.47;;;11.27;;
11344;SDS011;5727;42.600;23.028;2023-04-07T01:13:33;17.07;;;12.70;;
11344;SDS011;5727;42.600;23.028;2023-04-07T01:16:04;12.80;;;11.20;;
11344;SDS011;5727;42.600;23.028;2023-04-07T01:18:36;12.27;;;10.97;;
11344;SDS011;5727;42.600;23.028;2023-04-07T01:21:05;13.73;;;11.07;;
11344;SDS011;5727;42.600;23.028;2023-04-07T01:23:46;13.47;;;11.53;;
11344;SDS011;5727;42.600;23.028;2023-04-07T01:26:19;15.67;;;11.83;;
11344;SDS011;5727;42.600;23.028;2023-04-07T01:31:52;12.80;;;9.63;;
11344;SDS011;5727;42.600;23.028;2023-04-07T01:34:21;14.87;;;10.30;;
11344;SDS011;5727;42.600;23.028;2023-04-07T01:36:51;12.67;;;10.27;;
11344;SDS011;5727;42.600;23.028;2023-04-07T01:39:20;8.90;;;8.07;;
11344;SDS011;5727;42.600;23.028;2023-04-07T01:41:49;10.33;;;9.33;;
11344;SDS011;5727;42.600;23.028;2023-04-07T01:44:17;11.63;;;9.20;;
11344;SDS011;5727;42.600;23.028;2023-04-07T01:46:45;9.47;;;8.37;;
11344;SDS011;5727;42.600;23.028;2023-04-07T01:49:13;9.63;;;8.10;;
11344;SDS011;5727;42.600;23.028;2023-04-07T01:51:40;9.67;;;7.97;;
11344;SDS011;5727;42.600;23.028;2023-04-07T01:54:08;8.30;;;7.60;;
11344;SDS011;5727;42.600;23.028;2023-04-07T01:56:35;7.70;;;7.00;;
11344;SDS011;5727;42.600;23.028;2023-04-07T01:59:01;10.40;;;8.13;;
11344;SDS011;5727;42.600;23.028;2023-04-07T02:01:28;9.90;;;8.90;;
11344;SDS011;5727;42.600;23.028;2023-04-07T02:03:57;10.57;;;8.40;;
11344;SDS011;5727;42.600;23.028;2023-04-07T02:06:33;9.17;;;8.30;;
11344;SDS011;5727;42.600;23.028;2023-04-07T02:09:05;8.73;;;7.43;;
11344;SDS011;5727;42.600;23.028;2023-04-07T02:11:35;8.87;;;7.97;;
11344;SDS011;5727;42.600;23.028;2023-04-07T02:14:03;8.93;;;7.97;;
11344;SDS011;5727;42.600;23.028;2023-04-07T02:16:32;9.17;;;7.60;;
11344;SDS011;5727;42.600;23.028;2023-04-07T02:19:00;8.57;;;7.77;;
11344;SDS011;5727;42.600;23.028;2023-04-07T02:21:28;8.70;;;7.87;;
11344;SDS011;5727;42.600;23.028;2023-04-07T02:24:01;8.60;;;7.70;;
11344;SDS011;5727;42.600;23.028;2023-04-07T02:26:31;8.47;;;7.67;;
11344;SDS011;5727;42.600;23.028;2023-04-07T02:28:59;8.37;;;7.63;;
11344;SDS011;5727;42.600;23.028;2023-04-07T02:31:25;7.87;;;7.17;;
11344;SDS011;5727;42.600;23.028;2023-04-07T02:33:52;8.13;;;7.33;;
11344;SDS011;5727;42.600;23.028;2023-04-07T02:36:19;9.27;;;7.33;;
11344;SDS011;5727;42.600;23.028;2023-04-07T02:38:46;7.63;;;7.00;;
11344;SDS011;5727;42.600;23.028;2023-04-07T02:41:14;9.97;;;8.20;;
11344;SDS011;5727;42.600;23.028;2023-04-07T02:43:40;10.10;;;7.73;;
11344;SDS011;5727;42.600;23.028;2023-04-07T02:46:07;12.97;;;8.07;;
11344;SDS011;5727;42.600;23.028;2023-04-07T02:48:34;9.00;;;8.10;;
11344;SDS011;5727;42.600;23.028;2023-04-07T02:51:00;7.87;;;7.07;;
11344;SDS011;5727;42.600;23.028;2023-04-07T02:53:27;8.30;;;7.53;;
11344;SDS011;5727;42.600;23.028;2023-04-07T02:55:54;7.57;;;6.73;;
11344;SDS011;5727;42.600;23.028;2023-04-07T02:58:22;7.43;;;6.73;;
11344;SDS011;5727;42.600;23.028;2023-04-07T03:00:49;8.13;;;7.33;;
11344;SDS011;5727;42.600;23.028;2023-04-07T03:03:15;7.90;;;7.10;;
11344;SDS011;5727;42.600;23.028;2023-04-07T03:05:42;8.13;;;7.30;;
11344;SDS011;5727;42.600;23.028;2023-04-07T03:08:09;7.97;;;7.17;;
11344;SDS011;5727;42.600;23.028;2023-04-07T03:10:36;9.73;;;7.10;;
11344;SDS011;5727;42.600;23.028;2023-04-07T03:13:02;8.20;;;7.40;;
11344;SDS011;5727;42.600;23.028;2023-04-07T03:15:31;7.87;;;7.07;;
11344;SDS011;5727;42.600;23.028;2023-04-07T03:17:58;7.73;;;7.10;;
11344;SDS011;5727;42.600;23.028;2023-04-07T03:20:25;8.73;;;7.93;;
11344;SDS011;5727;42.600;23.028;2023-04-07T03:22:51;8.13;;;7.43;;
11344;SDS011;5727;42.600;23.028;2023-04-07T03:25:18;7.13;;;6.43;;
11344;SDS011;5727;42.600;23.028;2023-04-07T03:27:45;7.63;;;6.87;;
11344;SDS011;5727;42.600;23.028;2023-04-07T03:30:12;7.80;;;7.00;;
11344;SDS011;5727;42.600;23.028;2023-04-07T03:32:40;7.83;;;7.03;;
11344;SDS011;5727;42.600;23.028;2023-04-07T03:35:07;8.63;;;7.80;;
11344;SDS011;5727;42.600;23.028;2023-04-07T03:37:34;8.40;;;7.20;;
11344;SDS011;5727;42.600;23.028;2023-04-07T03:40:01;10.83;;;7.43;;
11344;SDS011;5727;42.600;23.028;2023-04-07T03:42:28;8.00;;;7.20;;
11344;SDS011;5727;42.600;23.028;2023-04-07T03:44:55;8.73;;;6.80;;
11344;SDS011;5727;42.600;23.028;2023-04-07T03:47:21;8.07;;;7.37;;
11344;SDS011;5727;42.600;23.028;2023-04-07T03:49:49;7.67;;;6.97;;
11344;SDS011;5727;42.600;23.028;2023-04-07T03:52:16;8.50;;;7.70;;
11344;SDS011;5727;42.600;23.028;2023-04-07T03:54:43;8.13;;;7.27;;
11344;SDS011;5727;42.600;23.028;2023-04-07T03:57:10;7.40;;;6.73;;
11344;SDS011;5727;42.600;23.028;2023-04-07T03:59:37;8.53;;;7.83;;
11344;SDS011;5727;42.600;23.028;2023-04-07T04:02:04;8.17;;;7.47;;
11344;SDS011;5727;42.600;23.028;2023-04-07T04:04:31;8.93;;;7.80;;
11344;SDS011;5727;42.600;23.028;2023-04-07T04:06:59;9.23;;;7.77;;
11344;SDS011;5727;42.600;23.028;2023-04-07T04:09:25;8.60;;;7.73;;
11344;SDS011;5727;42.600;23.028;2023-04-07T04:11:52;9.90;;;8.60;;
11344;SDS011;5727;42.600;23.028;2023-04-07T04:14:19;8.97;;;8.07;;
11344;SDS011;5727;42.600;23.028;2023-04-07T04:16:45;8.90;;;8.00;;
11344;SDS011;5727;42.600;23.028;2023-04-07T04:19:12;8.87;;;7.40;;
11344;SDS011;5727;42.600;23.028;2023-04-07T04:21:39;8.47;;;7.67;;
11344;SDS011;5727;42.600;23.028;2023-04-07T04:24:07;9.87;;;8.10;;
11344;SDS011;5727;42.600;23.028;2023-04-07T04:26:34;9.10;;;7.40;;
11344;SDS011;5727;42.600;23.028;2023-04-07T04:29:00;8.10;;;7.30;;
11344;SDS011;5727;42.600;23.028;2023-04-07T04:31:28;8.33;;;7.53;;
11344;SDS011;5727;42.600;23.028;2023-04-07T04:33:54;10.37;;;8.10;;
11344;SDS011;5727;42.600;23.028;2023-04-07T04:36:21;8.77;;;7.80;;
11344;SDS011;5727;42.600;23.028;2023-04-07T04:38:48;10.70;;;8.40;;
11344;SDS011;5727;42.600;23.028;2023-04-07T04:41:16;12.90;;;7.73;;
11344;SDS011;5727;42.600;23.028;2023-04-07T04:43:42;8.93;;;7.47;;
11344;SDS011;5727;42.600;23.028;2023-04-07T04:46:09;11.03;;;7.97;;
11344;SDS011;5727;42.600;23.028;2023-04-07T04:48:36;8.53;;;7.63;;
11344;SDS011;5727;42.600;23.028;2023-04-07T04:51:03;8.60;;;7.37;;
11344;SDS011;5727;42.600;23.028;2023-04-07T04:53:30;9.17;;;7.57;;
11344;SDS011;5727;42.600;23.028;2023-04-07T04:55:56;8.57;;;7.00;;
11344;SDS011;5727;42.600;23.028;2023-04-07T04:58:24;8.07;;;7.27;;
11344;SDS011;5727;42.600;23.028;2023-04-07T05:00:52;8.63;;;7.80;;
11344;SDS011;5727;42.600;23.028;2023-04-07T05:03:22;8.23;;;7.47;;
11344;SDS011;5727;42.600;23.028;2023-04-07T05:05:50;8.13;;;7.33;;
11344;SDS011;5727;42.600;23.028;2023-04-07T05:08:16;8.20;;;7.37;;
11344;SDS011;5727;42.600;23.028;2023-04-07T05:10:43;8.27;;;7.10;;
11344;SDS011;5727;42.600;23.028;2023-04-07T05:13:11;8.67;;;7.30;;
11344;SDS011;5727;42.600;23.028;2023-04-07T05:15:39;7.97;;;7.23;;
11344;SDS011;5727;42.600;23.028;2023-04-07T05:18:06;7.90;;;7.13;;
11344;SDS011;5727;42.600;23.028;2023-04-07T05:20:33;7.60;;;6.90;;
11344;SDS011;5727;42.600;23.028;2023-04-07T05:23:00;7.97;;;7.20;;
11344;SDS011;5727;42.600;23.028;2023-04-07T05:25:27;7.93;;;7.23;;
11344;SDS011;5727;42.600;23.028;2023-04-07T05:27:53;9.37;;;7.80;;
11344;SDS011;5727;42.600;23.028;2023-04-07T05:30:20;10.80;;;7.50;;
11344;SDS011;5727;42.600;23.028;2023-04-07T05:32:48;8.80;;;7.87;;
11344;SDS011;5727;42.600;23.028;2023-04-07T05:35:15;9.00;;;7.43;;
11344;SDS011;5727;42.600;23.028;2023-04-07T05:37:42;7.93;;;7.13;;
11344;SDS011;5727;42.600;23.028;2023-04-07T05:40:09;8.00;;;7.27;;
11344;SDS011;5727;42.600;23.028;2023-04-07T05:42:36;7.57;;;6.80;;
11344;SDS011;5727;42.600;23.028;2023-04-07T05:45:03;8.60;;;7.80;;
11344;SDS011;5727;42.600;23.028;2023-04-07T05:47:31;7.60;;;6.90;;
11344;SDS011;5727;42.600;23.028;2023-04-07T05:49:59;7.87;;;7.07;;
11344;SDS011;5727;42.600;23.028;2023-04-07T05:52:25;11.67;;;6.97;;
11344;SDS011;5727;42.600;23.028;2023-04-07T05:54:52;7.97;;;7.17;;
11344;SDS011;5727;42.600;23.028;2023-04-07T05:57:19;8.10;;;6.93;;
11344;SDS011;5727;42.600;23.028;2023-04-07T05:59:46;7.53;;;6.77;;
11344;SDS011;5727;42.600;23.028;2023-04-07T06:02:13;10.33;;;7.40;;
11344;SDS011;5727;42.600;23.028;2023-04-07T06:18:02;8.47;;;7.63;;
11344;SDS011;5727;42.600;23.028;2023-04-07T06:20:28;8.73;;;7.60;;
11344;SDS011;5727;42.600;23.028;2023-04-07T06:22:55;9.23;;;7.93;;
11344;SDS011;5727;42.600;23.028;2023-04-07T06:25:22;25.97;;;14.27;;
11344;SDS011;5727;42.600;23.028;2023-04-07T06:27:49;7.47;;;6.77;;
11344;SDS011;5727;42.600;23.028;2023-04-07T06:30:15;8.97;;;7.03;;
11344;SDS011;5727;42.600;23.028;2023-04-07T06:32:42;6.73;;;6.10;;
11344;SDS011;5727;42.600;23.028;2023-04-07T06:35:10;10.53;;;6.53;;
11344;SDS011;5727;42.600;23.028;2023-04-07T06:37:37;7.57;;;6.57;;
11344;SDS011;5727;42.600;23.028;2023-04-07T06:40:05;8.63;;;7.37;;
11344;SDS011;5727;42.600;23.028;2023-04-07T06:42:32;7.57;;;6.87;;
11344;SDS011;5727;42.600;23.028;2023-04-07T06:44:59;7.20;;;6.60;;
11344;SDS011;5727;42.600;23.028;2023-04-07T06:47:26;9.03;;;6.80;;
11344;SDS011;5727;42.600;23.028;2023-04-07T06:49:53;7.37;;;6.57;;
11344;SDS011;5727;42.600;23.028;2023-04-07T06:52:21;7.53;;;6.83;;
11344;SDS011;5727;42.600;23.028;2023-04-07T06:54:48;7.77;;;6.97;;
11344;SDS011;5727;42.600;23.028;2023-04-07T06:57:15;8.23;;;6.90;;
11344;SDS011;5727;42.600;23.028;2023-04-07T06:59:41;7.23;;;6.43;;
11344;SDS011;5727;42.600;23.028;2023-04-07T07:02:08;7.27;;;6.47;;
11344;SDS011;5727;42.600;23.028;2023-04-07T07:04:35;7.47;;;6.87;;
11344;SDS011;5727;42.600;23.028;2023-04-07T07:07:01;7.23;;;6.53;;
11344;SDS011;5727;42.600;23.028;2023-04-07T07:09:29;7.37;;;6.63;;
11344;SDS011;5727;42.600;23.028;2023-04-07T07:11:56;7.50;;;6.80;;
11344;SDS011;5727;42.600;23.028;2023-04-07T07:14:23;8.33;;;7.50;;
11344;SDS011;5727;42.600;23.028;2023-04-07T07:16:50;10.77;;;7.90;;
11344;SDS011;5727;42.600;23.028;2023-04-07T07:19:16;8.57;;;7.67;;
11344;SDS011;5727;42.600;23.028;2023-04-07T07:21:43;8.07;;;6.43;;
11344;SDS011;5727;42.600;23.028;2023-04-07T07:24:10;6.73;;;6.13;;
11344;SDS011;5727;42.600;23.028;2023-04-07T07:26:38;7.33;;;6.07;;
11344;SDS011;5727;42.600;23.028;2023-04-07T07:29:05;7.40;;;6.70;;
11344;SDS011;5727;42.600;23.028;2023-04-07T07:31:32;7.87;;;6.70;;
11344;SDS011;5727;42.600;23.028;2023-04-07T07:33:59;6.90;;;6.20;;
11344;SDS011;5727;42.600;23.028;2023-04-07T07:36:26;6.70;;;6.07;;
11344;SDS011;5727;42.600;23.028;2023-04-07T07:38:52;6.83;;;5.73;;
11344;SDS011;5727;42.600;23.028;2023-04-07T07:41:19;7.33;;;6.70;;
11344;SDS011;5727;42.600;23.028;2023-04-07T07:43:47;6.63;;;6.03;;
11344;SDS011;5727;42.600;23.028;2023-04-07T07:46:14;6.63;;;6.03;;
11344;SDS011;5727;42.600;23.028;2023-04-07T07:48:41;7.17;;;5.93;;
11344;SDS011;5727;42.600;23.028;2023-04-07T07:51:08;7.37;;;6.67;;
11344;SDS011;5727;42.600;23.028;2023-04-07T07:53:34;6.17;;;5.27;;
11344;SDS011;5727;42.600;23.028;2023-04-07T07:56:01;6.93;;;6.40;;
11344;SDS011;5727;42.600;23.028;2023-04-07T07:58:28;6.83;;;6.23;;
11344;SDS011;5727;42.600;23.028;2023-04-07T08:00:56;8.70;;;7.50;;
11344;SDS011;5727;42.600;23.028;2023-04-07T08:03:23;7.67;;;6.87;;
11344;SDS011;5727;42.600;23.028;2023-04-07T08:05:49;7.83;;;6.97;;
11344;SDS011;5727;42.600;23.028;2023-04-07T08:08:16;7.33;;;6.73;;
11344;SDS011;5727;42.600;23.028;2023-04-07T08:10:43;7.80;;;7.10;;
11344;SDS011;5727;42.600;23.028;2023-04-07T08:13:09;7.80;;;6.73;;
11344;SDS011;5727;42.600;23.028;2023-04-07T08:15:36;8.97;;;7.00;;
11344;SDS011;5727;42.600;23.028;2023-04-07T08:18:05;9.93;;;6.53;;
11344;SDS011;5727;42.600;23.028;2023-04-07T08:20:32;6.03;;;5.63;;
11344;SDS011;5727;42.600;23.028;2023-04-07T08:23:00;6.20;;;5.70;;
11344;SDS011;5727;42.600;23.028;2023-04-07T08:25:27;6.53;;;5.93;;
11344;SDS011;5727;42.600;23.028;2023-04-07T08:27:54;7.73;;;6.07;;
11344;SDS011;5727;42.600;23.028;2023-04-07T08:30:21;6.83;;;6.13;;
11344;SDS011;5727;42.600;23.028;2023-04-07T08:32:48;8.30;;;6.77;;
11344;SDS011;5727;42.600;23.028;2023-04-07T08:35:16;7.17;;;5.90;;
11344;SDS011;5727;42.600;23.028;2023-04-07T08:37:43;8.40;;;6.93;;
11344;SDS011;5727;42.600;23.028;2023-04-07T08:40:10;8.60;;;7.60;;
11344;SDS011;5727;42.600;23.028;2023-04-07T08:42:39;9.67;;;6.67;;
11344;SDS011;5727;42.600;23.028;2023-04-07T08:45:08;9.10;;;8.13;;
11344;SDS011;5727;42.600;23.028;2023-04-07T08:47:35;7.77;;;7.00;;
11344;SDS011;5727;42.600;23.028;2023-04-07T08:50:03;9.43;;;7.87;;
11344;SDS011;5727;42.600;23.028;2023-04-07T08:52:34;9.70;;;7.13;;
11344;SDS011;5727;42.600;23.028;2023-04-07T08:55:08;7.33;;;6.47;;
11344;SDS011;5727;42.600;23.028;2023-04-07T08:57:36;7.07;;;6.37;;
11344;SDS011;5727;42.600;23.028;2023-04-07T09:00:03;7.40;;;6.57;;
11344;SDS011;5727;42.600;23.028;2023-04-07T09:02:31;7.60;;;6.77;;
11344;SDS011;5727;42.600;23.028;2023-04-07T09:04:59;8.07;;;7.27;;
11344;SDS011;5727;42.600;23.028;2023-04-07T09:07:28;7.57;;;6.87;;
11344;SDS011;5727;42.600;23.028;2023-04-07T09:09:58;7.40;;;6.70;;
11344;SDS011;5727;42.600;23.028;2023-04-07T09:12:25;7.47;;;6.77;;
11344;SDS011;5727;42.600;23.028;2023-04-07T09:14:53;8.77;;;7.73;;
11344;SDS011;5727;42.600;23.028;2023-04-07T09:17:20;7.40;;;6.80;;
11344;SDS011;5727;42.600;23.028;2023-04-07T09:19:47;7.50;;;6.83;;
11344;SDS011;5727;42.600;23.028;2023-04-07T09:22:14;7.77;;;6.93;;
11344;SDS011;5727;42.600;23.028;2023-04-07T09:24:41;8.37;;;7.00;;
11344;SDS011;5727;42.600;23.028;2023-04-07T09:27:09;7.93;;;7.23;;
11344;SDS011;5727;42.600;23.028;2023-04-07T09:29:40;9.17;;;6.63;;
11344;SDS011;5727;42.600;23.028;2023-04-07T09:32:08;6.93;;;6.33;;
11344;SDS011;5727;42.600;23.028;2023-04-07T09:34:36;7.60;;;6.90;;
11344;SDS011;5727;42.600;23.028;2023-04-07T09:37:04;7.73;;;7.13;;
11344;SDS011;5727;42.600;23.028;2023-04-07T09:39:33;8.33;;;7.13;;
11344;SDS011;5727;42.600;23.028;2023-04-07T09:42:16;7.33;;;6.63;;
11344;SDS011;5727;42.600;23.028;2023-04-07T09:44:42;7.03;;;6.43;;
11344;SDS011;5727;42.600;23.028;2023-04-07T09:47:09;7.60;;;6.90;;
11344;SDS011;5727;42.600;23.028;2023-04-07T09:49:47;8.37;;;6.37;;
11344;SDS011;5727;42.600;23.028;2023-04-07T09:52:15;8.53;;;7.70;;
11344;SDS011;5727;42.600;23.028;2023-04-07T09:54:43;7.63;;;6.83;;
11344;SDS011;5727;42.600;23.028;2023-04-07T09:57:12;8.03;;;6.87;;
11344;SDS011;5727;42.600;23.028;2023-04-07T09:59:40;8.53;;;7.40;;
11344;SDS011;5727;42.600;23.028;2023-04-07T10:02:08;6.73;;;6.13;;
11344;SDS011;5727;42.600;23.028;2023-04-07T10:04:36;6.63;;;6.03;;
11344;SDS011;5727;42.600;23.028;2023-04-07T10:07:04;7.00;;;6.30;;
11344;SDS011;5727;42.600;23.028;2023-04-07T10:09:31;9.10;;;7.40;;
11344;SDS011;5727;42.600;23.028;2023-04-07T10:11:58;8.80;;;7.07;;
11344;SDS011;5727;42.600;23.028;2023-04-07T10:14:25;7.20;;;6.60;;
11344;SDS011;5727;42.600;23.028;2023-04-07T10:16:56;9.00;;;7.13;;
11344;SDS011;5727;42.600;23.028;2023-04-07T10:19:25;8.00;;;7.30;;
11344;SDS011;5727;42.600;23.028;2023-04-07T10:21:55;8.00;;;7.20;;
11344;SDS011;5727;42.600;23.028;2023-04-07T10:24:26;7.53;;;6.83;;
11344;SDS011;5727;42.600;23.028;2023-04-07T10:27:05;7.70;;;6.90;;
11344;SDS011;5727;42.600;23.028;2023-04-07T10:29:36;7.43;;;6.63;;
11344;SDS011;5727;42.600;23.028;2023-04-07T10:32:08;7.37;;;6.77;;
11344;SDS011;5727;42.600;23.028;2023-04-07T10:34:54;7.00;;;6.37;;
11344;SDS011;5727;42.600;23.028;2023-04-07T10:37:22;8.27;;;7.47;;
11344;SDS011;5727;42.600;23.028;2023-04-07T10:39:50;7.63;;;6.73;;
11344;SDS011;5727;42.600;23.028;2023-04-07T10:42:43;7.97;;;7.17;;
11344;SDS011;5727;42.600;23.028;2023-04-07T10:45:11;8.00;;;7.23;;
11344;SDS011;5727;42.600;23.028;2023-04-07T10:48:07;8.40;;;5.87;;
11344;SDS011;5727;42.600;23.028;2023-04-07T10:50:35;7.00;;;6.40;;
11344;SDS011;5727;42.600;23.028;2023-04-07T10:53:06;6.70;;;6.00;;
11344;SDS011;5727;42.600;23.028;2023-04-07T10:55:35;6.90;;;6.30;;
11344;SDS011;5727;42.600;23.028;2023-04-07T10:58:13;6.97;;;6.30;;
11344;SDS011;5727;42.600;23.028;2023-04-07T11:17:46;7.50;;;6.70;;
11344;SDS011;5727;42.600;23.028;2023-04-07T11:20:12;7.73;;;7.00;;
11344;SDS011;5727;42.600;23.028;2023-04-07T11:22:39;6.73;;;6.07;;
11344;SDS011;5727;42.600;23.028;2023-04-07T11:25:19;6.27;;;5.73;;
11344;SDS011;5727;42.600;23.028;2023-04-07T11:27:47;9.03;;;6.37;;
11344;SDS011;5727;42.600;23.028;2023-04-07T11:30:14;6.40;;;5.77;;
11344;SDS011;5727;42.600;23.028;2023-04-07T11:32:47;6.70;;;6.10;;
11344;SDS011;5727;42.600;23.028;2023-04-07T11:35:15;6.13;;;5.63;;
11344;SDS011;5727;42.600;23.028;2023-04-07T11:37:42;6.97;;;6.17;;
11344;SDS011;5727;42.600;23.028;2023-04-07T11:40:09;6.93;;;6.20;;
11344;SDS011;5727;42.600;23.028;2023-04-07T11:42:39;7.07;;;6.40;;
11344;SDS011;5727;42.600;23.028;2023-04-07T11:45:06;7.60;;;6.53;;
11344;SDS011;5727;42.600;23.028;2023-04-07T11:47:42;7.10;;;6.50;;
11344;SDS011;5727;42.600;23.028;2023-04-07T11:50:10;7.47;;;6.57;;
11344;SDS011;5727;42.600;23.028;2023-04-07T11:52:40;6.73;;;6.13;;
11344;SDS011;5727;42.600;23.028;2023-04-07T11:55:15;6.20;;;5.60;;
11344;SDS011;5727;42.600;23.028;2023-04-07T11:57:43;6.30;;;5.63;;
11344;SDS011;5727;42.600;23.028;2023-04-07T12:00:10;6.43;;;5.83;;
11344;SDS011;5727;42.600;23.028;2023-04-07T12:02:39;6.43;;;5.93;;
11344;SDS011;5727;42.600;23.028;2023-04-07T12:05:07;6.30;;;5.67;;
11344;SDS011;5727;42.600;23.028;2023-04-07T12:07:36;8.57;;;6.77;;
11344;SDS011;5727;42.600;23.028;2023-04-07T12:12:51;6.63;;;6.03;;
11344;SDS011;5727;42.600;23.028;2023-04-07T12:15:17;6.93;;;6.33;;
11344;SDS011;5727;42.600;23.028;2023-04-07T12:17:44;6.83;;;6.17;;
11344;SDS011;5727;42.600;23.028;2023-04-07T12:20:12;9.83;;;6.77;;
11344;SDS011;5727;42.600;23.028;2023-04-07T12:22:40;7.10;;;6.50;;
11344;SDS011;5727;42.600;23.028;2023-04-07T12:25:07;7.73;;;6.93;;
11344;SDS011;5727;42.600;23.028;2023-04-07T12:27:34;6.70;;;6.20;;
11344;SDS011;5727;42.600;23.028;2023-04-07T12:30:01;8.33;;;6.57;;
11344;SDS011;5727;42.600;23.028;2023-04-07T12:32:28;7.40;;;6.70;;
11344;SDS011;5727;42.600;23.028;2023-04-07T12:34:56;7.07;;;6.30;;
11344;SDS011;5727;42.600;23.028;2023-04-07T12:37:23;6.87;;;6.27;;
11344;SDS011;5727;42.600;23.028;2023-04-07T12:39:51;6.80;;;6.20;;
11344;SDS011;5727;42.600;23.028;2023-04-07T12:42:18;6.80;;;6.10;;
11344;SDS011;5727;42.600;23.028;2023-04-07T12:44:45;7.17;;;6.47;;
11344;SDS011;5727;42.600;23.028;2023-04-07T12:47:11;7.00;;;6.40;;
11344;SDS011;5727;42.600;23.028;2023-04-07T12:49:38;7.07;;;6.37;;
11344;SDS011;5727;42.600;23.028;2023-04-07T12:52:05;6.57;;;5.97;;
11344;SDS011;5727;42.600;23.028;2023-04-07T12:54:31;7.10;;;6.40;;
11344;SDS011;5727;42.600;23.028;2023-04-07T12:57:00;7.17;;;6.40;;
11344;SDS011;5727;42.600;23.028;2023-04-07T12:59:27;7.40;;;6.70;;
11344;SDS011;5727;42.600;23.028;2023-04-07T13:01:55;6.70;;;6.13;;
11344;SDS011;5727;42.600;23.028;2023-04-07T13:04:21;7.50;;;6.40;;
11344;SDS011;5727;42.600;23.028;2023-04-07T13:06:50;7.63;;;5.93;;
11344;SDS011;5727;42.600;23.028;2023-04-07T13:09:17;7.30;;;6.60;;
11344;SDS011;5727;42.600;23.028;2023-04-07T13:11:44;7.00;;;6.30;;
11344;SDS011;5727;42.600;23.028;2023-04-07T13:14:12;6.60;;;5.90;;
11344;SDS011;5727;42.600;23.028;2023-04-07T13:16:39;6.63;;;6.03;;
11344;SDS011;5727;42.600;23.028;2023-04-07T13:19:06;7.80;;;7.00;;
11344;SDS011;5727;42.600;23.028;2023-04-07T13:21:33;7.27;;;6.53;;
11344;SDS011;5727;42.600;23.028;2023-04-07T13:24:00;6.93;;;6.27;;
11344;SDS011;5727;42.600;23.028;2023-04-07T13:26:27;8.57;;;7.23;;
11344;SDS011;5727;42.600;23.028;2023-04-07T13:28:53;7.30;;;6.57;;
11344;SDS011;5727;42.600;23.028;2023-04-07T13:31:21;6.43;;;6.00;;
11344;SDS011;5727;42.600;23.028;2023-04-07T13:33:48;6.97;;;6.37;;
11344;SDS011;5727;42.600;23.028;2023-04-07T13:36:15;8.97;;;6.67;;
11344;SDS011;5727;42.600;23.028;2023-04-07T13:38:42;7.00;;;6.40;;
11344;SDS011;5727;42.600;23.028;2023-04-07T13:41:08;7.77;;;7.07;;
11344;SDS011;5727;42.600;23.028;2023-04-07T13:43:35;7.63;;;6.93;;
11344;SDS011;5727;42.600;23.028;2023-04-07T13:46:02;8.37;;;7.53;;
11344;SDS011;5727;42.600;23.028;2023-04-07T13:48:31;7.87;;;7.07;;
11344;SDS011;5727;42.600;23.028;2023-04-07T13:50:57;7.10;;;6.50;;
11344;SDS011;5727;42.600;23.028;2023-04-07T13:53:24;8.93;;;7.13;;
11344;SDS011;5727;42.600;23.028;2023-04-07T13:55:51;7.90;;;7.20;;
11344;SDS011;5727;42.600;23.028;2023-04-07T13:58:18;8.83;;;7.60;;
11344;SDS011;5727;42.600;23.028;2023-04-07T14:00:47;8.30;;;7.43;;
11344;SDS011;5727;42.600;23.028;2023-04-07T14:03:14;9.27;;;7.70;;
11344;SDS011;5727;42.600;23.028;2023-04-07T14:05:42;8.93;;;8.00;;
11344;SDS011;5727;42.600;23.028;2023-04-07T14:08:09;7.23;;;6.57;;
11344;SDS011;5727;42.600;23.028;2023-04-07T14:10:36;7.40;;;6.70;;
11344;SDS011;5727;42.600;23.028;2023-04-07T14:13:04;7.80;;;6.80;;
11344;SDS011;5727;42.600;23.028;2023-04-07T14:15:32;8.80;;;7.90;;
11344;SDS011;5727;42.600;23.028;2023-04-07T14:17:59;8.83;;;7.93;;
11344;SDS011;5727;42.600;23.028;2023-04-07T14:20:25;8.50;;;7.33;;
11344;SDS011;5727;42.600;23.028;2023-04-07T14:22:53;11.00;;;6.80;;
11344;SDS011;5727;42.600;23.028;2023-04-07T14:25:20;10.33;;;7.27;;
11344;SDS011;5727;42.600;23.028;2023-04-07T14:27:47;11.93;;;7.53;;
11344;SDS011;5727;42.600;23.028;2023-04-07T14:30:14;10.67;;;7.00;;
11344;SDS011;5727;42.600;23.028;2023-04-07T14:32:40;7.03;;;6.33;;
11344;SDS011;5727;42.600;23.028;2023-04-07T14:35:07;9.23;;;7.77;;
11344;SDS011;5727;42.600;23.028;2023-04-07T14:37:34;8.30;;;7.30;;
11344;SDS011;5727;42.600;23.028;2023-04-07T14:40:03;10.40;;;7.43;;
11344;SDS011;5727;42.600;23.028;2023-04-07T14:42:31;7.70;;;6.90;;
11344;SDS011;5727;42.600;23.028;2023-04-07T14:44:58;8.57;;;7.10;;
11344;SDS011;5727;42.600;23.028;2023-04-07T14:47:25;7.97;;;6.83;;
11344;SDS011;5727;42.600;23.028;2023-04-07T14:49:52;8.03;;;7.23;;
11344;SDS011;5727;42.600;23.028;2023-04-07T14:52:19;8.07;;;7.03;;
11344;SDS011;5727;42.600;23.028;2023-04-07T14:54:46;8.93;;;7.93;;
11344;SDS011;5727;42.600;23.028;2023-04-07T14:57:15;8.83;;;7.77;;
11344;SDS011;5727;42.600;23.028;2023-04-07T14:59:41;11.50;;;8.23;;
11344;SDS011;5727;42.600;23.028;2023-04-07T15:02:08;9.90;;;8.17;;
11344;SDS011;5727;42.600;23.028;2023-04-07T15:04:35;9.70;;;7.60;;
11344;SDS011;5727;42.600;23.028;2023-04-07T15:07:01;8.23;;;7.43;;
11344;SDS011;5727;42.600;23.028;2023-04-07T15:09:29;9.47;;;7.80;;
11344;SDS011;5727;42.600;23.028;2023-04-07T15:11:57;10.03;;;7.63;;
11344;SDS011;5727;42.600;23.028;2023-04-07T15:14:26;9.27;;;7.93;;
11344;SDS011;5727;42.600;23.028;2023-04-07T15:16:53;11.27;;;8.30;;
11344;SDS011;5727;42.600;23.028;2023-04-07T15:19:20;10.80;;;8.10;;
11344;SDS011;5727;42.600;23.028;2023-04-07T15:21:46;8.67;;;7.67;;
11344;SDS011;5727;42.600;23.028;2023-04-07T15:24:13;9.43;;;8.53;;